sensor_id;sensor_type;location;lat;lon;timestamp;P1;durP1;ratioP1;P2;durP2;ratioP2
69847;SDS011;57143;55.940;37.496;2024-03-02T00:01:16;39.63;;;17.05;;
69847;SDS011;57143;55.940;37.496;2024-03-02T00:03:44;41.90;;;17.45;;
69847;SDS011;57143;55.940;37.496;2024-03-02T00:06:11;39.42;;;17.58;;
69847;SDS011;57143;55.940;37.496;2024-03-02T00:08:38;43.73;;;18.77;;
69847;SDS011;57143;55.940;37.496;2024-03-02T00:11:06;49.13;;;18.52;;
69847;SDS011;57143;55.940;37.496;2024-03-02T00:13:36;48.30;;;19.20;;
69847;SDS011;57143;55.940;37.496;2024-03-02T00:16:05;42.88;;;18.67;;
69847;SDS011;57143;55.940;37.496;2024-03-02T00:18:34;42.35;;;17.17;;
69847;SDS011;57143;55.940;37.496;2024-03-02T00:21:03;41.73;;;17.40;;
69847;SDS011;57143;55.940;37.496;2024-03-02T00:23:35;47.17;;;18.77;;
69847;SDS011;57143;55.940;37.496;2024-03-02T00:26:04;44.28;;;18.50;;
69847;SDS011;57143;55.940;37.496;2024-03-02T00:28:34;44.08;;;18.38;;
69847;SDS011;57143;55.940;37.496;2024-03-02T00:31:03;43.22;;;18.30;;
69847;SDS011;57143;55.940;37.496;2024-03-02T00:33:32;39.93;;;18.10;;
69847;SDS011;57143;55.940;37.496;2024-03-02T00:36:02;41.03;;;18.30;;
69847;SDS011;57143;55.940;37.496;2024-03-02T00:38:30;42.15;;;17.95;;
69847;SDS011;57143;55.940;37.496;2024-03-02T00:41:00;42.50;;;18.10;;
69847;SDS011;57143;55.940;37.496;2024-03-02T00:43:41;49.70;;;19.13;;
69847;SDS011;57143;55.940;37.496;2024-03-02T00:46:13;44.00;;;18.50;;
69847;SDS011;57143;55.940;37.496;2024-03-02T00:48:55;39.92;;;16.77;;
69847;SDS011;57143;55.940;37.496;2024-03-02T00:51:24;40.83;;;17.48;;
69847;SDS011;57143;55.940;37.496;2024-03-02T00:53:54;42.85;;;18.05;;
69847;SDS011;57143;55.940;37.496;2024-03-02T00:56:22;45.78;;;18.30;;
69847;SDS011;57143;55.940;37.496;2024-03-02T00:58:50;42.53;;;18.37;;
69847;SDS011;57143;55.940;37.496;2024-03-02T01:01:18;43.17;;;17.83;;
69847;SDS011;57143;55.940;37.496;2024-03-02T01:03:46;39.88;;;17.85;;
69847;SDS011;57143;55.940;37.496;2024-03-02T01:06:16;46.65;;;18.38;;
69847;SDS011;57143;55.940;37.496;2024-03-02T01:08:44;40.65;;;19.13;;
69847;SDS011;57143;55.940;37.496;2024-03-02T01:11:11;49.50;;;19.13;;
69847;SDS011;57143;55.940;37.496;2024-03-02T01:13:39;43.15;;;18.15;;
69847;SDS011;57143;55.940;37.496;2024-03-02T01:16:06;42.25;;;19.02;;
69847;SDS011;57143;55.940;37.496;2024-03-02T01:18:34;42.50;;;18.17;;
69847;SDS011;57143;55.940;37.496;2024-03-02T01:21:01;37.35;;;17.38;;
69847;SDS011;57143;55.940;37.496;2024-03-02T01:23:31;42.67;;;18.23;;
69847;SDS011;57143;55.940;37.496;2024-03-02T01:26:01;38.53;;;17.73;;
69847;SDS011;57143;55.940;37.496;2024-03-02T01:28:28;41.60;;;18.30;;
69847;SDS011;57143;55.940;37.496;2024-03-02T01:30:55;43.88;;;17.70;;
69847;SDS011;57143;55.940;37.496;2024-03-02T01:33:23;40.92;;;17.88;;
69847;SDS011;57143;55.940;37.496;2024-03-02T01:35:51;42.47;;;19.33;;
69847;SDS011;57143;55.940;37.496;2024-03-02T01:38:18;53.78;;;19.63;;
69847;SDS011;57143;55.940;37.496;2024-03-02T01:40:47;39.17;;;17.58;;
69847;SDS011;57143;55.940;37.496;2024-03-02T01:43:14;41.88;;;18.20;;
69847;SDS011;57143;55.940;37.496;2024-03-02T01:45:42;50.83;;;20.05;;
69847;SDS011;57143;55.940;37.496;2024-03-02T01:48:09;44.40;;;18.53;;
69847;SDS011;57143;55.940;37.496;2024-03-02T01:50:37;42.35;;;17.25;;
69847;SDS011;57143;55.940;37.496;2024-03-02T01:53:04;37.22;;;17.60;;
69847;SDS011;57143;55.940;37.496;2024-03-02T01:55:31;40.13;;;17.50;;
69847;SDS011;57143;55.940;37.496;2024-03-02T01:58:01;42.53;;;16.88;;
69847;SDS011;57143;55.940;37.496;2024-03-02T02:00:29;39.63;;;17.77;;
69847;SDS011;57143;55.940;37.496;2024-03-02T02:02:57;45.47;;;18.27;;
69847;SDS011;57143;55.940;37.496;2024-03-02T02:05:25;43.53;;;18.00;;
69847;SDS011;57143;55.940;37.496;2024-03-02T02:07:52;43.45;;;18.90;;
69847;SDS011;57143;55.940;37.496;2024-03-02T02:10:20;47.42;;;17.60;;
69847;SDS011;57143;55.940;37.496;2024-03-02T02:12:47;41.90;;;17.17;;
69847;SDS011;57143;55.940;37.496;2024-03-02T02:15:22;43.20;;;18.38;;
69847;SDS011;57143;55.940;37.496;2024-03-02T02:17:53;45.78;;;18.23;;
69847;SDS011;57143;55.940;37.496;2024-03-02T02:20:41;33.72;;;16.10;;
69847;SDS011;57143;55.940;37.496;2024-03-02T02:23:10;42.78;;;18.48;;
69847;SDS011;57143;55.940;37.496;2024-03-02T02:25:38;45.27;;;17.80;;
69847;SDS011;57143;55.940;37.496;2024-03-02T02:28:06;45.00;;;19.27;;
69847;SDS011;57143;55.940;37.496;2024-03-02T02:30:33;41.25;;;18.85;;
69847;SDS011;57143;55.940;37.496;2024-03-02T02:33:00;44.00;;;19.20;;
69847;SDS011;57143;55.940;37.496;2024-03-02T02:35:28;45.92;;;19.92;;
69847;SDS011;57143;55.940;37.496;2024-03-02T02:37:56;44.07;;;18.63;;
69847;SDS011;57143;55.940;37.496;2024-03-02T02:40:25;38.40;;;17.88;;
69847;SDS011;57143;55.940;37.496;2024-03-02T02:42:55;44.58;;;18.33;;
69847;SDS011;57143;55.940;37.496;2024-03-02T02:45:22;41.22;;;17.67;;
69847;SDS011;57143;55.940;37.496;2024-03-02T02:47:49;44.13;;;18.30;;
69847;SDS011;57143;55.940;37.496;2024-03-02T02:50:17;44.43;;;18.30;;
69847;SDS011;57143;55.940;37.496;2024-03-02T02:52:44;51.45;;;19.00;;
69847;SDS011;57143;55.940;37.496;2024-03-02T02:55:12;39.30;;;19.40;;
69847;SDS011;57143;55.940;37.496;2024-03-02T02:57:42;40.88;;;17.35;;
69847;SDS011;57143;55.940;37.496;2024-03-02T03:00:11;40.83;;;17.92;;
69847;SDS011;57143;55.940;37.496;2024-03-02T03:02:41;36.37;;;17.93;;
69847;SDS011;57143;55.940;37.496;2024-03-02T03:05:09;38.50;;;17.10;;
69847;SDS011;57143;55.940;37.496;2024-03-02T03:07:37;41.55;;;19.02;;
69847;SDS011;57143;55.940;37.496;2024-03-02T03:10:06;47.75;;;19.40;;
69847;SDS011;57143;55.940;37.496;2024-03-02T03:12:34;41.97;;;17.30;;
69847;SDS011;57143;55.940;37.496;2024-03-02T03:15:04;56.80;;;19.67;;
69847;SDS011;57143;55.940;37.496;2024-03-02T03:17:33;48.83;;;20.15;;
69847;SDS011;57143;55.940;37.496;2024-03-02T03:20:02;40.92;;;17.83;;
69847;SDS011;57143;55.940;37.496;2024-03-02T03:22:31;39.30;;;17.13;;
69847;SDS011;57143;55.940;37.496;2024-03-02T03:24:58;43.42;;;18.40;;
69847;SDS011;57143;55.940;37.496;2024-03-02T03:27:26;49.93;;;20.13;;
69847;SDS011;57143;55.940;37.496;2024-03-02T03:29:53;46.92;;;19.95;;
69847;SDS011;57143;55.940;37.496;2024-03-02T03:32:22;42.88;;;19.60;;
69847;SDS011;57143;55.940;37.496;2024-03-02T03:34:50;45.50;;;18.65;;
69847;SDS011;57143;55.940;37.496;2024-03-02T03:37:17;39.25;;;17.35;;
69847;SDS011;57143;55.940;37.496;2024-03-02T03:39:44;39.40;;;16.93;;
69847;SDS011;57143;55.940;37.496;2024-03-02T03:42:12;41.53;;;17.00;;
69847;SDS011;57143;55.940;37.496;2024-03-02T03:44:39;49.97;;;18.58;;
69847;SDS011;57143;55.940;37.496;2024-03-02T03:47:07;44.00;;;18.45;;
69847;SDS011;57143;55.940;37.496;2024-03-02T03:49:35;38.75;;;16.88;;
69847;SDS011;57143;55.940;37.496;2024-03-02T03:52:03;43.00;;;18.27;;
69847;SDS011;57143;55.940;37.496;2024-03-02T03:54:31;43.22;;;18.08;;
69847;SDS011;57143;55.940;37.496;2024-03-02T03:56:58;47.25;;;19.45;;
69847;SDS011;57143;55.940;37.496;2024-03-02T03:59:25;38.92;;;15.52;;
69847;SDS011;57143;55.940;37.496;2024-03-02T04:01:56;44.53;;;16.85;;
69847;SDS011;57143;55.940;37.496;2024-03-02T04:04:23;49.60;;;17.90;;
69847;SDS011;57143;55.940;37.496;2024-03-02T04:06:51;42.30;;;18.70;;
69847;SDS011;57143;55.940;37.496;2024-03-02T04:09:19;49.40;;;17.55;;
69847;SDS011;57143;55.940;37.496;2024-03-02T04:11:47;49.13;;;18.13;;
69847;SDS011;57143;55.940;37.496;2024-03-02T04:14:14;37.75;;;17.80;;
69847;SDS011;57143;55.940;37.496;2024-03-02T04:16:41;42.30;;;17.17;;
69847;SDS011;57143;55.940;37.496;2024-03-02T04:19:08;37.58;;;17.25;;
69847;SDS011;57143;55.940;37.496;2024-03-02T04:21:36;46.78;;;19.95;;
69847;SDS011;57143;55.940;37.496;2024-03-02T04:24:07;47.60;;;19.38;;
69847;SDS011;57143;55.940;37.496;2024-03-02T04:26:34;48.88;;;20.42;;
69847;SDS011;57143;55.940;37.496;2024-03-02T04:29:01;39.80;;;17.70;;
69847;SDS011;57143;55.940;37.496;2024-03-02T04:31:29;40.63;;;18.05;;
69847;SDS011;57143;55.940;37.496;2024-03-02T04:33:56;43.50;;;18.13;;
69847;SDS011;57143;55.940;37.496;2024-03-02T04:36:23;42.60;;;19.00;;
69847;SDS011;57143;55.940;37.496;2024-03-02T04:38:51;40.25;;;17.25;;
69847;SDS011;57143;55.940;37.496;2024-03-02T04:41:20;43.23;;;21.10;;
69847;SDS011;57143;55.940;37.496;2024-03-02T04:43:47;40.10;;;18.88;;
69847;SDS011;57143;55.940;37.496;2024-03-02T04:46:15;48.10;;;20.25;;
69847;SDS011;57143;55.940;37.496;2024-03-02T04:48:42;44.65;;;18.33;;
69847;SDS011;57143;55.940;37.496;2024-03-02T04:51:09;42.13;;;18.20;;
69847;SDS011;57143;55.940;37.496;2024-03-02T04:53:37;42.60;;;19.17;;
69847;SDS011;57143;55.940;37.496;2024-03-02T04:56:05;40.42;;;17.90;;
69847;SDS011;57143;55.940;37.496;2024-03-02T04:59:07;32.95;;;17.25;;
69847;SDS011;57143;55.940;37.496;2024-03-02T05:01:34;43.78;;;17.75;;
69847;SDS011;57143;55.940;37.496;2024-03-02T05:04:01;44.13;;;17.42;;
69847;SDS011;57143;55.940;37.496;2024-03-02T05:06:29;50.70;;;18.43;;
69847;SDS011;57143;55.940;37.496;2024-03-02T05:08:56;59.55;;;22.67;;
69847;SDS011;57143;55.940;37.496;2024-03-02T05:11:23;40.85;;;17.58;;
69847;SDS011;57143;55.940;37.496;2024-03-02T05:14:09;39.85;;;16.75;;
69847;SDS011;57143;55.940;37.496;2024-03-02T05:16:37;45.15;;;18.45;;
69847;SDS011;57143;55.940;37.496;2024-03-02T05:19:05;43.13;;;19.30;;
69847;SDS011;57143;55.940;37.496;2024-03-02T05:21:33;38.22;;;17.17;;
69847;SDS011;57143;55.940;37.496;2024-03-02T05:24:01;41.15;;;18.75;;
69847;SDS011;57143;55.940;37.496;2024-03-02T05:26:28;48.00;;;18.13;;
69847;SDS011;57143;55.940;37.496;2024-03-02T05:28:55;45.63;;;19.52;;
69847;SDS011;57143;55.940;37.496;2024-03-02T05:31:24;38.93;;;17.73;;
69847;SDS011;57143;55.940;37.496;2024-03-02T05:33:52;42.83;;;18.77;;
69847;SDS011;57143;55.940;37.496;2024-03-02T05:36:19;39.20;;;17.60;;
69847;SDS011;57143;55.940;37.496;2024-03-02T05:38:47;38.78;;;18.33;;
69847;SDS011;57143;55.940;37.496;2024-03-02T05:41:14;43.35;;;19.42;;
69847;SDS011;57143;55.940;37.496;2024-03-02T05:43:41;44.53;;;18.27;;
69847;SDS011;57143;55.940;37.496;2024-03-02T05:46:09;40.72;;;17.77;;
69847;SDS011;57143;55.940;37.496;2024-03-02T05:48:38;36.72;;;17.17;;
69847;SDS011;57143;55.940;37.496;2024-03-02T05:51:06;40.83;;;17.40;;
69847;SDS011;57143;55.940;37.496;2024-03-02T05:53:33;41.60;;;18.30;;
69847;SDS011;57143;55.940;37.496;2024-03-02T05:56:03;56.57;;;23.40;;
69847;SDS011;57143;55.940;37.496;2024-03-02T05:58:31;44.03;;;19.23;;
69847;SDS011;57143;55.940;37.496;2024-03-02T06:01:11;41.78;;;18.33;;
69847;SDS011;57143;55.940;37.496;2024-03-02T06:03:40;44.55;;;18.00;;
69847;SDS011;57143;55.940;37.496;2024-03-02T06:06:07;40.00;;;17.33;;
69847;SDS011;57143;55.940;37.496;2024-03-02T06:08:35;41.63;;;19.47;;
69847;SDS011;57143;55.940;37.496;2024-03-02T06:11:03;35.50;;;15.63;;
69847;SDS011;57143;55.940;37.496;2024-03-02T06:13:30;36.67;;;17.35;;
69847;SDS011;57143;55.940;37.496;2024-03-02T06:15:57;40.92;;;17.58;;
69847;SDS011;57143;55.940;37.496;2024-03-02T06:18:24;39.65;;;17.38;;
69847;SDS011;57143;55.940;37.496;2024-03-02T06:20:54;41.03;;;17.13;;
69847;SDS011;57143;55.940;37.496;2024-03-02T06:23:22;46.45;;;17.75;;
69847;SDS011;57143;55.940;37.496;2024-03-02T06:25:50;42.50;;;19.35;;
69847;SDS011;57143;55.940;37.496;2024-03-02T06:28:17;48.67;;;18.63;;
69847;SDS011;57143;55.940;37.496;2024-03-02T06:30:45;38.85;;;18.42;;
69847;SDS011;57143;55.940;37.496;2024-03-02T06:33:13;38.33;;;17.63;;
69847;SDS011;57143;55.940;37.496;2024-03-02T06:35:40;40.72;;;18.05;;
69847;SDS011;57143;55.940;37.496;2024-03-02T06:38:09;37.00;;;18.50;;
69847;SDS011;57143;55.940;37.496;2024-03-02T06:40:35;40.78;;;18.08;;
69847;SDS011;57143;55.940;37.496;2024-03-02T06:43:03;39.80;;;18.42;;
69847;SDS011;57143;55.940;37.496;2024-03-02T06:45:31;42.70;;;18.07;;
69847;SDS011;57143;55.940;37.496;2024-03-02T06:48:00;45.75;;;18.25;;
69847;SDS011;57143;55.940;37.496;2024-03-02T06:50:27;42.50;;;18.45;;
69847;SDS011;57143;55.940;37.496;2024-03-02T06:52:54;45.03;;;18.20;;
69847;SDS011;57143;55.940;37.496;2024-03-02T06:55:24;46.10;;;18.38;;
69847;SDS011;57143;55.940;37.496;2024-03-02T06:57:51;40.87;;;18.13;;
69847;SDS011;57143;55.940;37.496;2024-03-02T07:00:19;42.38;;;17.35;;
69847;SDS011;57143;55.940;37.496;2024-03-02T07:02:47;42.80;;;18.58;;
69847;SDS011;57143;55.940;37.496;2024-03-02T07:05:14;37.95;;;17.73;;
69847;SDS011;57143;55.940;37.496;2024-03-02T07:07:41;43.70;;;17.42;;
69847;SDS011;57143;55.940;37.496;2024-03-02T07:10:09;44.70;;;18.67;;
69847;SDS011;57143;55.940;37.496;2024-03-02T07:12:37;42.78;;;18.98;;
69847;SDS011;57143;55.940;37.496;2024-03-02T07:15:05;34.72;;;16.90;;
69847;SDS011;57143;55.940;37.496;2024-03-02T07:18:02;42.13;;;19.23;;
69847;SDS011;57143;55.940;37.496;2024-03-02T07:20:30;40.58;;;18.33;;
69847;SDS011;57143;55.940;37.496;2024-03-02T07:22:57;45.43;;;18.63;;
69847;SDS011;57143;55.940;37.496;2024-03-02T07:25:25;43.38;;;20.98;;
69847;SDS011;57143;55.940;37.496;2024-03-02T07:27:54;42.70;;;18.70;;
69847;SDS011;57143;55.940;37.496;2024-03-02T07:30:22;41.58;;;18.13;;
69847;SDS011;57143;55.940;37.496;2024-03-02T07:32:50;42.97;;;19.00;;
69847;SDS011;57143;55.940;37.496;2024-03-02T07:35:17;41.40;;;18.50;;
69847;SDS011;57143;55.940;37.496;2024-03-02T07:37:44;42.58;;;18.88;;
69847;SDS011;57143;55.940;37.496;2024-03-02T07:40:12;42.22;;;20.17;;
69847;SDS011;57143;55.940;37.496;2024-03-02T07:42:40;43.22;;;18.45;;
69847;SDS011;57143;55.940;37.496;2024-03-02T07:45:09;43.45;;;19.55;;
69847;SDS011;57143;55.940;37.496;2024-03-02T07:47:37;43.67;;;19.63;;
69847;SDS011;57143;55.940;37.496;2024-03-02T07:50:05;40.97;;;19.83;;
69847;SDS011;57143;55.940;37.496;2024-03-02T07:52:33;44.22;;;19.58;;
69847;SDS011;57143;55.940;37.496;2024-03-02T07:55:00;43.20;;;20.02;;
69847;SDS011;57143;55.940;37.496;2024-03-02T07:57:29;45.58;;;18.85;;
69847;SDS011;57143;55.940;37.496;2024-03-02T07:59:57;45.47;;;18.87;;
69847;SDS011;57143;55.940;37.496;2024-03-02T08:02:26;45.60;;;18.58;;
69847;SDS011;57143;55.940;37.496;2024-03-02T08:05:12;41.17;;;18.77;;
69847;SDS011;57143;55.940;37.496;2024-03-02T08:07:40;49.05;;;19.15;;
69847;SDS011;57143;55.940;37.496;2024-03-02T08:10:07;41.55;;;18.13;;
69847;SDS011;57143;55.940;37.496;2024-03-02T08:12:35;44.03;;;18.93;;
69847;SDS011;57143;55.940;37.496;2024-03-02T08:15:03;45.55;;;19.65;;
69847;SDS011;57143;55.940;37.496;2024-03-02T08:17:35;42.17;;;19.30;;
69847;SDS011;57143;55.940;37.496;2024-03-02T08:20:03;42.65;;;17.90;;
69847;SDS011;57143;55.940;37.496;2024-03-02T08:22:33;39.95;;;18.23;;
69847;SDS011;57143;55.940;37.496;2024-03-02T08:25:01;35.87;;;17.27;;
69847;SDS011;57143;55.940;37.496;2024-03-02T08:27:30;41.90;;;18.13;;
69847;SDS011;57143;55.940;37.496;2024-03-02T08:29:58;39.17;;;17.02;;
69847;SDS011;57143;55.940;37.496;2024-03-02T08:32:26;44.83;;;19.00;;
69847;SDS011;57143;55.940;37.496;2024-03-02T08:34:54;43.05;;;18.40;;
69847;SDS011;57143;55.940;37.496;2024-03-02T08:37:22;40.37;;;18.47;;
69847;SDS011;57143;55.940;37.496;2024-03-02T08:39:49;37.88;;;17.13;;
69847;SDS011;57143;55.940;37.496;2024-03-02T08:42:17;47.72;;;19.83;;
69847;SDS011;57143;55.940;37.496;2024-03-02T08:44:44;45.95;;;17.80;;
69847;SDS011;57143;55.940;37.496;2024-03-02T08:47:12;42.53;;;18.73;;
69847;SDS011;57143;55.940;37.496;2024-03-02T08:49:59;40.20;;;17.63;;
69847;SDS011;57143;55.940;37.496;2024-03-02T08:52:26;42.55;;;18.98;;
69847;SDS011;57143;55.940;37.496;2024-03-02T08:54:54;39.78;;;18.70;;
69847;SDS011;57143;55.940;37.496;2024-03-02T08:57:21;40.97;;;16.98;;
69847;SDS011;57143;55.940;37.496;2024-03-02T08:59:49;37.08;;;17.75;;
69847;SDS011;57143;55.940;37.496;2024-03-02T09:02:16;39.30;;;17.77;;
69847;SDS011;57143;55.940;37.496;2024-03-02T09:04:44;35.05;;;17.75;;
69847;SDS011;57143;55.940;37.496;2024-03-02T09:07:12;44.80;;;17.05;;
69847;SDS011;57143;55.940;37.496;2024-03-02T09:09:40;37.50;;;17.67;;
69847;SDS011;57143;55.940;37.496;2024-03-02T09:12:08;35.47;;;16.60;;
69847;SDS011;57143;55.940;37.496;2024-03-02T09:14:36;36.87;;;15.90;;
69847;SDS011;57143;55.940;37.496;2024-03-02T09:17:04;38.08;;;17.58;;
69847;SDS011;57143;55.940;37.496;2024-03-02T09:19:31;42.47;;;16.98;;
69847;SDS011;57143;55.940;37.496;2024-03-02T09:21:58;37.92;;;17.52;;
69847;SDS011;57143;55.940;37.496;2024-03-02T09:24:30;36.38;;;17.20;;
69847;SDS011;57143;55.940;37.496;2024-03-02T09:26:58;41.07;;;16.73;;
69847;SDS011;57143;55.940;37.496;2024-03-02T09:29:43;44.05;;;18.75;;
69847;SDS011;57143;55.940;37.496;2024-03-02T09:32:12;45.28;;;18.13;;
69847;SDS011;57143;55.940;37.496;2024-03-02T09:34:40;36.00;;;16.42;;
69847;SDS011;57143;55.940;37.496;2024-03-02T09:37:07;40.55;;;16.42;;
69847;SDS011;57143;55.940;37.496;2024-03-02T09:39:36;37.27;;;16.63;;
69847;SDS011;57143;55.940;37.496;2024-03-02T09:42:03;34.80;;;16.02;;
69847;SDS011;57143;55.940;37.496;2024-03-02T09:44:32;37.42;;;15.93;;
69847;SDS011;57143;55.940;37.496;2024-03-02T09:47:00;34.58;;;15.60;;
69847;SDS011;57143;55.940;37.496;2024-03-02T09:49:27;36.80;;;16.80;;
69847;SDS011;57143;55.940;37.496;2024-03-02T09:51:55;39.93;;;16.13;;
69847;SDS011;57143;55.940;37.496;2024-03-02T09:54:23;38.55;;;16.15;;
69847;SDS011;57143;55.940;37.496;2024-03-02T09:56:52;34.90;;;15.95;;
69847;SDS011;57143;55.940;37.496;2024-03-02T09:59:19;33.97;;;16.73;;
69847;SDS011;57143;55.940;37.496;2024-03-02T10:01:56;39.88;;;17.33;;
69847;SDS011;57143;55.940;37.496;2024-03-02T10:04:25;37.50;;;16.80;;
69847;SDS011;57143;55.940;37.496;2024-03-02T10:07:01;38.40;;;16.35;;
69847;SDS011;57143;55.940;37.496;2024-03-02T10:09:37;39.90;;;18.30;;
69847;SDS011;57143;55.940;37.496;2024-03-02T10:12:07;36.85;;;16.10;;
69847;SDS011;57143;55.940;37.496;2024-03-02T10:14:35;38.33;;;16.58;;
69847;SDS011;57143;55.940;37.496;2024-03-02T10:17:03;38.17;;;16.03;;
69847;SDS011;57143;55.940;37.496;2024-03-02T10:19:31;39.50;;;16.55;;
69847;SDS011;57143;55.940;37.496;2024-03-02T10:22:01;43.42;;;17.30;;
69847;SDS011;57143;55.940;37.496;2024-03-02T10:24:35;41.40;;;17.27;;
69847;SDS011;57143;55.940;37.496;2024-03-02T10:27:09;40.22;;;17.67;;
69847;SDS011;57143;55.940;37.496;2024-03-02T10:29:37;37.00;;;17.43;;
69847;SDS011;57143;55.940;37.496;2024-03-02T10:32:08;46.17;;;17.90;;
69847;SDS011;57143;55.940;37.496;2024-03-02T10:34:36;40.50;;;18.42;;
69847;SDS011;57143;55.940;37.496;2024-03-02T10:37:04;40.38;;;17.75;;
69847;SDS011;57143;55.940;37.496;2024-03-02T10:39:34;35.17;;;16.67;;
69847;SDS011;57143;55.940;37.496;2024-03-02T10:42:02;43.37;;;17.70;;
69847;SDS011;57143;55.940;37.496;2024-03-02T10:44:32;37.65;;;15.85;;
69847;SDS011;57143;55.940;37.496;2024-03-02T10:47:01;38.95;;;17.30;;
69847;SDS011;57143;55.940;37.496;2024-03-02T10:49:30;44.40;;;17.67;;
69847;SDS011;57143;55.940;37.496;2024-03-02T10:51:58;37.60;;;15.88;;
69847;SDS011;57143;55.940;37.496;2024-03-02T10:54:26;40.03;;;17.93;;
69847;SDS011;57143;55.940;37.496;2024-03-02T10:56:58;43.10;;;18.55;;
69847;SDS011;57143;55.940;37.496;2024-03-02T10:59:27;37.65;;;16.00;;
69847;SDS011;57143;55.940;37.496;2024-03-02T11:01:58;35.22;;;15.55;;
69847;SDS011;57143;55.940;37.496;2024-03-02T11:04:27;35.17;;;16.27;;
69847;SDS011;57143;55.940;37.496;2024-03-02T11:06:59;32.07;;;16.23;;
69847;SDS011;57143;55.940;37.496;2024-03-02T11:09:29;31.58;;;15.02;;
69847;SDS011;57143;55.940;37.496;2024-03-02T11:12:02;37.38;;;16.17;;
69847;SDS011;57143;55.940;37.496;2024-03-02T11:14:31;33.75;;;14.73;;
69847;SDS011;57143;55.940;37.496;2024-03-02T11:17:01;34.35;;;14.50;;
69847;SDS011;57143;55.940;37.496;2024-03-02T11:19:31;32.37;;;14.13;;
69847;SDS011;57143;55.940;37.496;2024-03-02T11:21:59;34.33;;;14.95;;
69847;SDS011;57143;55.940;37.496;2024-03-02T11:24:29;36.70;;;15.45;;
69847;SDS011;57143;55.940;37.496;2024-03-02T11:26:59;33.90;;;15.70;;
69847;SDS011;57143;55.940;37.496;2024-03-02T11:29:43;34.88;;;16.35;;
69847;SDS011;57143;55.940;37.496;2024-03-02T11:32:20;36.27;;;13.50;;
69847;SDS011;57143;55.940;37.496;2024-03-02T11:34:49;40.33;;;15.18;;
69847;SDS011;57143;55.940;37.496;2024-03-02T11:37:17;33.60;;;15.13;;
69847;SDS011;57143;55.940;37.496;2024-03-02T11:39:47;35.50;;;14.27;;
69847;SDS011;57143;55.940;37.496;2024-03-02T11:42:16;36.25;;;14.35;;
69847;SDS011;57143;55.940;37.496;2024-03-02T11:44:45;31.67;;;15.03;;
69847;SDS011;57143;55.940;37.496;2024-03-02T11:47:14;47.90;;;16.50;;
69847;SDS011;57143;55.940;37.496;2024-03-02T11:49:44;33.13;;;14.85;;
69847;SDS011;57143;55.940;37.496;2024-03-02T11:52:13;41.00;;;17.35;;
69847;SDS011;57143;55.940;37.496;2024-03-02T11:54:43;35.00;;;15.10;;
69847;SDS011;57143;55.940;37.496;2024-03-02T11:57:14;31.07;;;15.07;;
69847;SDS011;57143;55.940;37.496;2024-03-02T11:59:42;37.15;;;15.68;;
69847;SDS011;57143;55.940;37.496;2024-03-02T12:02:14;32.10;;;14.25;;
69847;SDS011;57143;55.940;37.496;2024-03-02T12:04:45;33.25;;;14.15;;
69847;SDS011;57143;55.940;37.496;2024-03-02T12:07:18;36.17;;;16.83;;
69847;SDS011;57143;55.940;37.496;2024-03-02T12:09:47;36.33;;;14.83;;
69847;SDS011;57143;55.940;37.496;2024-03-02T12:12:15;40.40;;;15.00;;
69847;SDS011;57143;55.940;37.496;2024-03-02T12:14:50;35.83;;;14.57;;
69847;SDS011;57143;55.940;37.496;2024-03-02T12:17:18;30.02;;;13.73;;
69847;SDS011;57143;55.940;37.496;2024-03-02T12:19:47;32.08;;;14.38;;
69847;SDS011;57143;55.940;37.496;2024-03-02T12:22:15;31.70;;;14.53;;
69847;SDS011;57143;55.940;37.496;2024-03-02T12:24:44;29.50;;;13.55;;
69847;SDS011;57143;55.940;37.496;2024-03-02T12:27:12;27.85;;;13.43;;
69847;SDS011;57143;55.940;37.496;2024-03-02T12:29:39;26.10;;;12.68;;
69847;SDS011;57143;55.940;37.496;2024-03-02T12:32:07;25.88;;;11.60;;
69847;SDS011;57143;55.940;37.496;2024-03-02T12:34:35;30.43;;;13.40;;
69847;SDS011;57143;55.940;37.496;2024-03-02T12:37:06;31.08;;;14.02;;
69847;SDS011;57143;55.940;37.496;2024-03-02T12:39:33;30.63;;;13.57;;
69847;SDS011;57143;55.940;37.496;2024-03-02T12:42:02;23.45;;;10.15;;
69847;SDS011;57143;55.940;37.496;2024-03-02T12:44:29;31.33;;;14.27;;
69847;SDS011;57143;55.940;37.496;2024-03-02T12:46:57;28.47;;;13.67;;
69847;SDS011;57143;55.940;37.496;2024-03-02T12:49:24;39.10;;;15.50;;
69847;SDS011;57143;55.940;37.496;2024-03-02T12:51:53;30.58;;;14.75;;
69847;SDS011;57143;55.940;37.496;2024-03-02T12:54:21;37.45;;;14.40;;
69847;SDS011;57143;55.940;37.496;2024-03-02T12:56:50;29.48;;;14.85;;
69847;SDS011;57143;55.940;37.496;2024-03-02T12:59:20;34.90;;;14.83;;
69847;SDS011;57143;55.940;37.496;2024-03-02T13:01:52;33.67;;;15.77;;
69847;SDS011;57143;55.940;37.496;2024-03-02T13:04:22;28.17;;;12.63;;
69847;SDS011;57143;55.940;37.496;2024-03-02T13:06:51;29.08;;;14.43;;
69847;SDS011;57143;55.940;37.496;2024-03-02T13:09:19;30.90;;;13.88;;
69847;SDS011;57143;55.940;37.496;2024-03-02T13:11:48;28.83;;;12.70;;
69847;SDS011;57143;55.940;37.496;2024-03-02T13:14:16;33.47;;;14.95;;
69847;SDS011;57143;55.940;37.496;2024-03-02T13:16:44;34.28;;;15.90;;
69847;SDS011;57143;55.940;37.496;2024-03-02T13:19:12;34.40;;;14.65;;
69847;SDS011;57143;55.940;37.496;2024-03-02T13:21:39;31.17;;;15.57;;
69847;SDS011;57143;55.940;37.496;2024-03-02T13:24:07;29.17;;;15.50;;
69847;SDS011;57143;55.940;37.496;2024-03-02T13:26:36;29.50;;;14.30;;
69847;SDS011;57143;55.940;37.496;2024-03-02T13:29:04;33.38;;;14.73;;
69847;SDS011;57143;55.940;37.496;2024-03-02T13:31:33;34.75;;;14.52;;
69847;SDS011;57143;55.940;37.496;2024-03-02T13:34:00;33.25;;;13.20;;
69847;SDS011;57143;55.940;37.496;2024-03-02T13:36:28;27.80;;;13.40;;
69847;SDS011;57143;55.940;37.496;2024-03-02T13:38:55;26.95;;;13.40;;
69847;SDS011;57143;55.940;37.496;2024-03-02T13:41:23;28.30;;;13.35;;
69847;SDS011;57143;55.940;37.496;2024-03-02T13:43:52;27.10;;;12.50;;
69847;SDS011;57143;55.940;37.496;2024-03-02T13:46:19;26.25;;;14.30;;
69847;SDS011;57143;55.940;37.496;2024-03-02T13:48:47;31.10;;;14.37;;
69847;SDS011;57143;55.940;37.496;2024-03-02T13:51:14;31.13;;;14.15;;
69847;SDS011;57143;55.940;37.496;2024-03-02T13:53:42;30.15;;;15.13;;
69847;SDS011;57143;55.940;37.496;2024-03-02T13:56:12;32.08;;;14.25;;
69847;SDS011;57143;55.940;37.496;2024-03-02T13:58:39;31.35;;;15.20;;
69847;SDS011;57143;55.940;37.496;2024-03-02T14:01:08;28.90;;;13.07;;
69847;SDS011;57143;55.940;37.496;2024-03-02T14:03:36;30.08;;;14.65;;
69847;SDS011;57143;55.940;37.496;2024-03-02T14:06:04;27.25;;;13.18;;
69847;SDS011;57143;55.940;37.496;2024-03-02T14:08:31;33.10;;;14.30;;
69847;SDS011;57143;55.940;37.496;2024-03-02T14:11:01;29.13;;;15.68;;
69847;SDS011;57143;55.940;37.496;2024-03-02T14:13:28;30.00;;;14.07;;
69847;SDS011;57143;55.940;37.496;2024-03-02T14:15:55;28.52;;;14.40;;
69847;SDS011;57143;55.940;37.496;2024-03-02T14:18:25;30.75;;;14.93;;